Ashland, OR

11:59 PM PDT on October 24, 2014 (GMT -0700)
Rogue Valley International-Medford | Change Station
CLOSE
Current Station
Airport
Location: Medford,
Elevation: 1329 ft
Nearby Weather Stations
Active Advisory: Wind Advisory

Elev 1329 ft 42.38 °N, 122.87 °W | Updated 6 minutes ago

Partly Cloudy
Partly Cloudy
53 °F
Feels Like 53 °F
N
0
Wind Variable Wind from North

Today
High -- | Low -- °F
--% Chance of Precip.
Yesterday
High -- | Low -- °F
Precip. -- in
7:33 AM 6:14 PM
New Moon, 2% visible
Pressure 29.63 in
Visibility 9.0 miles
Clouds Clear
Dew Point 52 °F
Humidity 96%
Rainfall 0.29 in
Snow Depth 0 in , 0 in
UV 0 out of 12
Pollen .40 out of 12
Air Quality Not available.
Flu Activity Sporadic
METAR KMFR 250653Z AUTO 00000KT 9SM CLR 12/11 A2964 RMK AO2 SLP033 T01170111

More Conditions Fewer Conditions

Pressure 29.63 in
Visibility 9.0 miles
Clouds Clear
Dew Point 52 °F
Humidity 96%
Rainfall 0.29 in
Snow Depth 0 in , 0 in
UV 0 out of 12
Pollen .40 out of 12
Air Quality Not available.
Flu Activity Sporadic
METAR KMFR 250653Z AUTO 00000KT 9SM CLR 12/11 A2964 RMK AO2 SLP033 T01170111

More Conditions Fewer Conditions

10-Day Weather Forecast

Almanac

Astronomy

Oct. 24, 2014 Rise Set
Actual Time 7:33 AM PDT 6:14 PM PDT
Civil Twilight 7:05 AM PDT 6:43 PM PDT
Nautical Twilight 6:32 AM PDT 7:16 PM PDT
Astronomical Twilight 6:00 AM PDT 7:48 PM PDT
Moon 8:18 AM PDT (10/24) 6:57 PM PDT (10/24)
Length of Visible Light 11h 38m
Length of Day
10h 41m
Tomorrow will be 2m 38s shorter.
New Moon, 2% of the Moon is Illuminated
Oct 25
New Moon
Oct 30
First Quarter
Nov 6
Full
Nov 14
Last Quarter
Nov 22
New

Yesterday's Extremes

State Highs State Lows

Community

WunderPhotos

Upload Photos

1,764,787 photos uploaded!

Nearby

Snow Depth

Station Depth Elevation
Big Red Mountain 0 in 6250 ft
Fish Lake 0 in 4665 ft
Billie Creek Divide 0 in 5300 ft
King Mountain 0 in 4000 ft
Cold Springs Camp 0 in 6100 ft

Earthquake Activity

City Distance Mag. Time & Date
No recent earthquake activity has been reported nearby.
Minimum magnitude displayed is 2.5.

Coastal Water Temperatures

Place Temperature
No Stations Reporting

Nearby Weather Stations